sensor_id;sensor_type;location;lat;lon;timestamp;pressure;altitude;pressure_sealevel;temperature;humidity
22743;BME280;11538;48.884;8.696;2023-08-12T00:00:57;98992.00;;;20.97;100.00
22743;BME280;11538;48.884;8.696;2023-08-12T00:03:24;98986.41;;;20.94;100.00
22743;BME280;11538;48.884;8.696;2023-08-12T00:05:52;98982.47;;;20.95;100.00
22743;BME280;11538;48.884;8.696;2023-08-12T00:08:19;98983.47;;;21.06;100.00
22743;BME280;11538;48.884;8.696;2023-08-12T00:10:47;98984.63;;;21.05;100.00
22743;BME280;11538;48.884;8.696;2023-08-12T00:13:13;98976.91;;;21.14;100.00
22743;BME280;11538;48.884;8.696;2023-08-12T00:15:44;98971.09;;;21.19;100.00
22743;BME280;11538;48.884;8.696;2023-08-12T00:18:14;98977.06;;;21.22;100.00
22743;BME280;11538;48.884;8.696;2023-08-12T00:20:42;98975.09;;;21.22;100.00
22743;BME280;11538;48.884;8.696;2023-08-12T00:23:09;98976.13;;;21.14;100.00
22743;BME280;11538;48.884;8.696;2023-08-12T00:25:36;98972.53;;;21.10;100.00
22743;BME280;11538;48.884;8.696;2023-08-12T00:28:03;98971.06;;;21.16;100.00
22743;BME280;11538;48.884;8.696;2023-08-12T00:30:30;98973.69;;;21.09;100.00
22743;BME280;11538;48.884;8.696;2023-08-12T00:32:57;98967.00;;;21.10;100.00
22743;BME280;11538;48.884;8.696;2023-08-12T00:35:24;98964.38;;;21.17;100.00
22743;BME280;11538;48.884;8.696;2023-08-12T00:37:54;98958.25;;;21.27;99.63
22743;BME280;11538;48.884;8.696;2023-08-12T00:40:21;98960.66;;;21.29;99.40
22743;BME280;11538;48.884;8.696;2023-08-12T00:42:48;98960.66;;;21.29;99.17
22743;BME280;11538;48.884;8.696;2023-08-12T00:45:15;98957.16;;;21.32;99.23
22743;BME280;11538;48.884;8.696;2023-08-12T00:47:42;98965.44;;;21.32;99.06
22743;BME280;11538;48.884;8.696;2023-08-12T00:50:13;98955.13;;;21.29;99.44
22743;BME280;11538;48.884;8.696;2023-08-12T00:52:41;98957.88;;;21.29;99.51
22743;BME280;11538;48.884;8.696;2023-08-12T00:55:09;98955.00;;;21.22;99.79
22743;BME280;11538;48.884;8.696;2023-08-12T00:57:36;98949.16;;;21.03;100.00
22743;BME280;11538;48.884;8.696;2023-08-12T01:00:04;98947.44;;;20.95;100.00
22743;BME280;11538;48.884;8.696;2023-08-12T01:02:31;98942.28;;;20.94;100.00
22743;BME280;11538;48.884;8.696;2023-08-12T01:04:59;98939.78;;;20.85;100.00
22743;BME280;11538;48.884;8.696;2023-08-12T01:07:26;98933.16;;;20.89;100.00
22743;BME280;11538;48.884;8.696;2023-08-12T01:09:54;98927.84;;;21.00;100.00
22743;BME280;11538;48.884;8.696;2023-08-12T01:12:29;98928.31;;;21.06;100.00
22743;BME280;11538;48.884;8.696;2023-08-12T01:15:10;98931.59;;;21.12;100.00
22743;BME280;11538;48.884;8.696;2023-08-12T01:17:41;98937.19;;;20.96;100.00
22743;BME280;11538;48.884;8.696;2023-08-12T01:20:11;98933.22;;;20.73;100.00
22743;BME280;11538;48.884;8.696;2023-08-12T01:22:44;98923.66;;;20.87;100.00
22743;BME280;11538;48.884;8.696;2023-08-12T01:25:11;98927.06;;;20.80;100.00
22743;BME280;11538;48.884;8.696;2023-08-12T01:27:38;98926.03;;;20.69;100.00
22743;BME280;11538;48.884;8.696;2023-08-12T01:30:07;98920.31;;;20.78;100.00
22743;BME280;11538;48.884;8.696;2023-08-12T01:32:47;98916.44;;;20.79;100.00
22743;BME280;11538;48.884;8.696;2023-08-12T01:37:53;98922.00;;;20.82;100.00
22743;BME280;11538;48.884;8.696;2023-08-12T01:40:24;98924.69;;;21.02;100.00
22743;BME280;11538;48.884;8.696;2023-08-12T01:42:52;98923.72;;;20.91;100.00
22743;BME280;11538;48.884;8.696;2023-08-12T01:45:19;98932.50;;;20.96;100.00
22743;BME280;11538;48.884;8.696;2023-08-12T01:47:46;98932.53;;;21.00;100.00
22743;BME280;11538;48.884;8.696;2023-08-12T01:50:17;98930.81;;;20.92;100.00
22743;BME280;11538;48.884;8.696;2023-08-12T01:52:45;98931.69;;;20.96;100.00
22743;BME280;11538;48.884;8.696;2023-08-12T01:55:12;98931.16;;;21.10;100.00
22743;BME280;11538;48.884;8.696;2023-08-12T01:57:39;98933.22;;;21.16;100.00
22743;BME280;11538;48.884;8.696;2023-08-12T02:00:07;98938.31;;;21.14;100.00
22743;BME280;11538;48.884;8.696;2023-08-12T02:02:35;98927.59;;;21.09;100.00
22743;BME280;11538;48.884;8.696;2023-08-12T02:05:02;98931.50;;;21.08;100.00
22743;BME280;11538;48.884;8.696;2023-08-12T02:07:30;98924.75;;;20.82;100.00
22743;BME280;11538;48.884;8.696;2023-08-12T02:09:56;98916.31;;;20.75;100.00
22743;BME280;11538;48.884;8.696;2023-08-12T02:12:23;98925.03;;;20.57;100.00
22743;BME280;11538;48.884;8.696;2023-08-12T02:14:50;98929.84;;;20.41;100.00
22743;BME280;11538;48.884;8.696;2023-08-12T02:17:17;98923.31;;;20.29;100.00
22743;BME280;11538;48.884;8.696;2023-08-12T02:19:44;98924.75;;;20.23;100.00
22743;BME280;11538;48.884;8.696;2023-08-12T02:22:14;98923.94;;;20.23;100.00
22743;BME280;11538;48.884;8.696;2023-08-12T02:24:41;98915.91;;;20.14;100.00
22743;BME280;11538;48.884;8.696;2023-08-12T02:27:08;98914.66;;;20.31;100.00
22743;BME280;11538;48.884;8.696;2023-08-12T02:29:36;98915.03;;;20.49;100.00
22743;BME280;11538;48.884;8.696;2023-08-12T02:32:03;98919.44;;;20.54;100.00
22743;BME280;11538;48.884;8.696;2023-08-12T02:34:30;98922.94;;;20.51;100.00
22743;BME280;11538;48.884;8.696;2023-08-12T02:36:57;98924.69;;;20.59;100.00
22743;BME280;11538;48.884;8.696;2023-08-12T02:39:24;98924.88;;;20.70;100.00
22743;BME280;11538;48.884;8.696;2023-08-12T02:41:51;98925.19;;;20.65;100.00
22743;BME280;11538;48.884;8.696;2023-08-12T02:44:18;98920.31;;;20.38;100.00
22743;BME280;11538;48.884;8.696;2023-08-12T02:46:45;98914.53;;;20.43;100.00
22743;BME280;11538;48.884;8.696;2023-08-12T02:49:12;98912.34;;;20.53;100.00
22743;BME280;11538;48.884;8.696;2023-08-12T02:51:39;98917.84;;;20.53;100.00
22743;BME280;11538;48.884;8.696;2023-08-12T02:54:06;98914.66;;;20.51;100.00
22743;BME280;11538;48.884;8.696;2023-08-12T02:56:33;98916.63;;;20.50;100.00
22743;BME280;11538;48.884;8.696;2023-08-12T02:59:00;98924.75;;;20.23;100.00
22743;BME280;11538;48.884;8.696;2023-08-12T03:01:27;98922.16;;;20.30;100.00
22743;BME280;11538;48.884;8.696;2023-08-12T03:03:54;98926.56;;;20.35;100.00
22743;BME280;11538;48.884;8.696;2023-08-12T03:06:22;98915.91;;;20.53;100.00
22743;BME280;11538;48.884;8.696;2023-08-12T03:08:48;98907.44;;;20.62;100.00
22743;BME280;11538;48.884;8.696;2023-08-12T03:11:15;98909.59;;;20.53;100.00
22743;BME280;11538;48.884;8.696;2023-08-12T03:13:43;98911.84;;;20.47;100.00
22743;BME280;11538;48.884;8.696;2023-08-12T03:16:14;98907.28;;;20.55;100.00
22743;BME280;11538;48.884;8.696;2023-08-12T03:18:42;98912.81;;;20.55;100.00
22743;BME280;11538;48.884;8.696;2023-08-12T03:21:09;98900.97;;;20.54;100.00
22743;BME280;11538;48.884;8.696;2023-08-12T03:23:37;98901.97;;;20.66;100.00
22743;BME280;11538;48.884;8.696;2023-08-12T03:26:05;98893.66;;;20.62;100.00
22743;BME280;11538;48.884;8.696;2023-08-12T03:28:32;98901.66;;;20.71;100.00
22743;BME280;11538;48.884;8.696;2023-08-12T03:30:59;98884.66;;;20.65;100.00
22743;BME280;11538;48.884;8.696;2023-08-12T03:33:26;98886.47;;;20.38;100.00
22743;BME280;11538;48.884;8.696;2023-08-12T03:35:53;98894.47;;;20.43;100.00
22743;BME280;11538;48.884;8.696;2023-08-12T03:38:20;98895.13;;;20.56;100.00
22743;BME280;11538;48.884;8.696;2023-08-12T03:40:47;98893.13;;;20.56;100.00
22743;BME280;11538;48.884;8.696;2023-08-12T03:43:14;98889.00;;;20.46;100.00
22743;BME280;11538;48.884;8.696;2023-08-12T03:45:45;98892.00;;;20.38;100.00
22743;BME280;11538;48.884;8.696;2023-08-12T03:48:12;98890.09;;;20.42;100.00
22743;BME280;11538;48.884;8.696;2023-08-12T03:50:41;98886.34;;;20.30;100.00
22743;BME280;11538;48.884;8.696;2023-08-12T03:53:08;98886.34;;;20.30;100.00
22743;BME280;11538;48.884;8.696;2023-08-12T03:55:36;98889.38;;;20.45;100.00
22743;BME280;11538;48.884;8.696;2023-08-12T03:58:03;98887.34;;;20.42;100.00
22743;BME280;11538;48.884;8.696;2023-08-12T04:00:30;98893.88;;;20.34;100.00
22743;BME280;11538;48.884;8.696;2023-08-12T04:02:57;98893.59;;;20.39;100.00
22743;BME280;11538;48.884;8.696;2023-08-12T04:05:24;98890.47;;;20.40;100.00
22743;BME280;11538;48.884;8.696;2023-08-12T04:07:52;98901.19;;;20.45;100.00
22743;BME280;11538;48.884;8.696;2023-08-12T04:10:19;98912.88;;;20.39;100.00
22743;BME280;11538;48.884;8.696;2023-08-12T04:12:46;98903.66;;;20.31;100.00
22743;BME280;11538;48.884;8.696;2023-08-12T04:15:13;98911.47;;;20.29;100.00
22743;BME280;11538;48.884;8.696;2023-08-12T04:17:40;98909.09;;;20.27;100.00
22743;BME280;11538;48.884;8.696;2023-08-12T04:20:08;98900.84;;;20.27;100.00
22743;BME280;11538;48.884;8.696;2023-08-12T04:22:35;98909.41;;;20.22;100.00
22743;BME280;11538;48.884;8.696;2023-08-12T04:25:03;98910.41;;;20.34;100.00
22743;BME280;11538;48.884;8.696;2023-08-12T04:27:31;98913.75;;;20.43;100.00
22743;BME280;11538;48.884;8.696;2023-08-12T04:29:57;98914.19;;;20.45;100.00
22743;BME280;11538;48.884;8.696;2023-08-12T04:32:24;98903.06;;;20.41;100.00
22743;BME280;11538;48.884;8.696;2023-08-12T04:34:51;98906.19;;;20.40;100.00
22743;BME280;11538;48.884;8.696;2023-08-12T04:37:18;98903.44;;;20.40;100.00
22743;BME280;11538;48.884;8.696;2023-08-12T04:39:45;98890.31;;;20.33;100.00
22743;BME280;11538;48.884;8.696;2023-08-12T04:42:12;98898.56;;;20.33;100.00
22743;BME280;11538;48.884;8.696;2023-08-12T04:44:39;98890.97;;;20.26;100.00
22743;BME280;11538;48.884;8.696;2023-08-12T04:47:06;98895.78;;;20.29;100.00
22743;BME280;11538;48.884;8.696;2023-08-12T04:49:33;98903.44;;;20.40;100.00
22743;BME280;11538;48.884;8.696;2023-08-12T04:52:00;98889.25;;;20.18;100.00
22743;BME280;11538;48.884;8.696;2023-08-12T04:54:27;98902.28;;;20.21;100.00
22743;BME280;11538;48.884;8.696;2023-08-12T04:56:54;98891.84;;;20.30;100.00
22743;BME280;11538;48.884;8.696;2023-08-12T04:59:21;98892.06;;;20.41;100.00
22743;BME280;11538;48.884;8.696;2023-08-12T05:01:48;98871.69;;;20.46;100.00
22743;BME280;11538;48.884;8.696;2023-08-12T05:04:30;98883.34;;;20.39;100.00
22743;BME280;11538;48.884;8.696;2023-08-12T05:06:56;98892.88;;;20.42;100.00
22743;BME280;11538;48.884;8.696;2023-08-12T05:09:23;98895.31;;;20.47;100.00
22743;BME280;11538;48.884;8.696;2023-08-12T05:11:50;98893.06;;;20.33;100.00
22743;BME280;11538;48.884;8.696;2023-08-12T05:14:17;98894.75;;;20.38;100.00
22743;BME280;11538;48.884;8.696;2023-08-12T05:16:44;98903.75;;;20.35;100.00
22743;BME280;11538;48.884;8.696;2023-08-12T05:19:11;98899.75;;;20.32;100.00
22743;BME280;11538;48.884;8.696;2023-08-12T05:21:38;98889.09;;;20.30;100.00
22743;BME280;11538;48.884;8.696;2023-08-12T05:24:05;98895.78;;;20.29;100.00
22743;BME280;11538;48.884;8.696;2023-08-12T05:26:33;98891.78;;;20.27;100.00
22743;BME280;11538;48.884;8.696;2023-08-12T05:29:00;98888.00;;;20.15;100.00
22743;BME280;11538;48.884;8.696;2023-08-12T05:31:27;98886.94;;;20.20;100.00
22743;BME280;11538;48.884;8.696;2023-08-12T05:33:54;98885.03;;;20.24;100.00
22743;BME280;11538;48.884;8.696;2023-08-12T05:36:21;98892.88;;;20.22;100.00
22743;BME280;11538;48.884;8.696;2023-08-12T05:38:48;98879.97;;;20.26;100.00
22743;BME280;11538;48.884;8.696;2023-08-12T05:41:15;98887.81;;;20.24;100.00
22743;BME280;11538;48.884;8.696;2023-08-12T05:43:42;98895.78;;;20.29;100.00
22743;BME280;11538;48.884;8.696;2023-08-12T05:46:10;98887.22;;;20.35;100.00
22743;BME280;11538;48.884;8.696;2023-08-12T05:48:37;98883.44;;;20.43;100.00
22743;BME280;11538;48.884;8.696;2023-08-12T05:51:04;98878.41;;;20.49;100.00
22743;BME280;11538;48.884;8.696;2023-08-12T05:53:32;98883.63;;;20.54;100.00
22743;BME280;11538;48.884;8.696;2023-08-12T05:56:00;98890.38;;;20.56;100.00
22743;BME280;11538;48.884;8.696;2023-08-12T05:58:27;98887.53;;;20.53;100.00
22743;BME280;11538;48.884;8.696;2023-08-12T06:00:54;98886.91;;;20.59;100.00
22743;BME280;11538;48.884;8.696;2023-08-12T06:03:21;98882.38;;;20.71;100.00
22743;BME280;11538;48.884;8.696;2023-08-12T06:05:49;98888.06;;;20.78;100.00
22743;BME280;11538;48.884;8.696;2023-08-12T06:08:16;98883.09;;;20.87;100.00
22743;BME280;11538;48.884;8.696;2023-08-12T06:10:43;98891.13;;;20.96;100.00
22743;BME280;11538;48.884;8.696;2023-08-12T06:13:10;98894.00;;;21.03;100.00
22743;BME280;11538;48.884;8.696;2023-08-12T06:15:37;98888.53;;;21.07;100.00
22743;BME280;11538;48.884;8.696;2023-08-12T06:18:04;98896.50;;;21.12;100.00
22743;BME280;11538;48.884;8.696;2023-08-12T06:20:32;98893.50;;;21.21;100.00
22743;BME280;11538;48.884;8.696;2023-08-12T06:22:59;98898.25;;;21.21;100.00
22743;BME280;11538;48.884;8.696;2023-08-12T06:25:26;98898.25;;;21.21;100.00
22743;BME280;11538;48.884;8.696;2023-08-12T06:27:52;98891.50;;;21.18;100.00
22743;BME280;11538;48.884;8.696;2023-08-12T06:30:20;98893.00;;;21.15;100.00
22743;BME280;11538;48.884;8.696;2023-08-12T06:32:47;98894.19;;;21.14;100.00
22743;BME280;11538;48.884;8.696;2023-08-12T06:35:14;98892.28;;;21.18;100.00
22743;BME280;11538;48.884;8.696;2023-08-12T06:37:41;98883.97;;;21.15;100.00
22743;BME280;11538;48.884;8.696;2023-08-12T06:40:08;98895.03;;;21.18;100.00
22743;BME280;11538;48.884;8.696;2023-08-12T06:42:35;98903.19;;;21.35;100.00
22743;BME280;11538;48.884;8.696;2023-08-12T06:45:03;98904.03;;;21.39;100.00
22743;BME280;11538;48.884;8.696;2023-08-12T06:47:31;98900.84;;;21.37;100.00
22743;BME280;11538;48.884;8.696;2023-08-12T06:49:58;98897.50;;;21.24;100.00
22743;BME280;11538;48.884;8.696;2023-08-12T06:52:25;98908.13;;;21.22;100.00
22743;BME280;11538;48.884;8.696;2023-08-12T06:54:52;98894.88;;;21.31;100.00
22743;BME280;11538;48.884;8.696;2023-08-12T06:57:19;98897.75;;;21.38;100.00
22743;BME280;11538;48.884;8.696;2023-08-12T06:59:46;98895.09;;;21.45;100.00
22743;BME280;11538;48.884;8.696;2023-08-12T07:02:13;98896.59;;;21.66;100.00
22743;BME280;11538;48.884;8.696;2023-08-12T07:04:40;98888.56;;;21.84;100.00
22743;BME280;11538;48.884;8.696;2023-08-12T07:07:07;98898.50;;;21.89;100.00
22743;BME280;11538;48.884;8.696;2023-08-12T07:09:34;98888.56;;;21.84;100.00
22743;BME280;11538;48.884;8.696;2023-08-12T07:12:01;98883.47;;;21.86;100.00
22743;BME280;11538;48.884;8.696;2023-08-12T07:14:31;98884.38;;;21.94;100.00
22743;BME280;11538;48.884;8.696;2023-08-12T07:16:58;98887.63;;;22.03;100.00
22743;BME280;11538;48.884;8.696;2023-08-12T07:19:24;98889.38;;;22.15;100.00
22743;BME280;11538;48.884;8.696;2023-08-12T07:21:52;98880.03;;;22.27;100.00
22743;BME280;11538;48.884;8.696;2023-08-12T07:24:19;98884.94;;;22.41;100.00
22743;BME280;11538;48.884;8.696;2023-08-12T07:26:46;98883.94;;;22.53;100.00
22743;BME280;11538;48.884;8.696;2023-08-12T07:29:14;98885.63;;;22.65;100.00
22743;BME280;11538;48.884;8.696;2023-08-12T07:31:41;98876.34;;;22.84;100.00
22743;BME280;11538;48.884;8.696;2023-08-12T07:34:08;98879.31;;;23.06;100.00
22743;BME280;11538;48.884;8.696;2023-08-12T07:36:34;98879.91;;;23.26;100.00
22743;BME280;11538;48.884;8.696;2023-08-12T07:39:02;98872.94;;;23.47;100.00
22743;BME280;11538;48.884;8.696;2023-08-12T07:41:29;98880.56;;;23.68;100.00
22743;BME280;11538;48.884;8.696;2023-08-12T07:43:56;98874.34;;;23.86;100.00
22743;BME280;11538;48.884;8.696;2023-08-12T07:46:23;98878.03;;;24.08;100.00
22743;BME280;11538;48.884;8.696;2023-08-12T07:48:50;98880.09;;;24.33;98.40
22743;BME280;11538;48.884;8.696;2023-08-12T07:51:17;98877.78;;;24.46;95.38
22743;BME280;11538;48.884;8.696;2023-08-12T07:53:44;98876.56;;;24.43;94.29
22743;BME280;11538;48.884;8.696;2023-08-12T07:56:11;98875.44;;;24.59;93.67
22743;BME280;11538;48.884;8.696;2023-08-12T07:58:38;98883.81;;;24.84;91.38
22743;BME280;11538;48.884;8.696;2023-08-12T08:01:05;98875.13;;;24.78;90.72
22743;BME280;11538;48.884;8.696;2023-08-12T08:03:32;98877.50;;;24.87;89.48
22743;BME280;11538;48.884;8.696;2023-08-12T08:05:58;98869.97;;;24.88;89.01
22743;BME280;11538;48.884;8.696;2023-08-12T08:08:25;98871.53;;;24.85;87.90
22743;BME280;11538;48.884;8.696;2023-08-12T08:10:52;98876.31;;;25.06;87.13
22743;BME280;11538;48.884;8.696;2023-08-12T08:13:19;98868.78;;;25.36;85.47
22743;BME280;11538;48.884;8.696;2023-08-12T08:15:46;98868.38;;;25.52;84.16
22743;BME280;11538;48.884;8.696;2023-08-12T08:18:13;98862.81;;;25.63;83.83
22743;BME280;11538;48.884;8.696;2023-08-12T08:20:42;98850.88;;;25.80;81.43
22743;BME280;11538;48.884;8.696;2023-08-12T08:23:12;98861.50;;;26.00;80.40
22743;BME280;11538;48.884;8.696;2023-08-12T08:25:38;98852.72;;;26.20;80.90
22743;BME280;11538;48.884;8.696;2023-08-12T08:28:06;98863.75;;;26.38;78.62
22743;BME280;11538;48.884;8.696;2023-08-12T08:30:33;98861.66;;;26.56;79.59
22743;BME280;11538;48.884;8.696;2023-08-12T08:33:00;98859.16;;;26.73;77.47
22743;BME280;11538;48.884;8.696;2023-08-12T08:35:27;98864.28;;;26.89;77.08
22743;BME280;11538;48.884;8.696;2023-08-12T08:37:54;98855.03;;;26.99;76.15
22743;BME280;11538;48.884;8.696;2023-08-12T08:40:21;98863.59;;;27.23;75.44
22743;BME280;11538;48.884;8.696;2023-08-12T08:42:52;98863.00;;;27.43;74.35
22743;BME280;11538;48.884;8.696;2023-08-12T08:45:22;98861.59;;;27.66;71.48
22743;BME280;11538;48.884;8.696;2023-08-12T08:47:51;98866.13;;;27.91;69.91
22743;BME280;11538;48.884;8.696;2023-08-12T08:50:20;98863.56;;;28.07;70.48
22743;BME280;11538;48.884;8.696;2023-08-12T08:52:48;98874.03;;;27.96;70.10
22743;BME280;11538;48.884;8.696;2023-08-12T08:55:17;98873.84;;;27.76;72.79
22743;BME280;11538;48.884;8.696;2023-08-12T08:57:48;98872.31;;;27.71;73.18
22743;BME280;11538;48.884;8.696;2023-08-12T09:00:19;98873.03;;;27.79;71.85
22743;BME280;11538;48.884;8.696;2023-08-12T09:02:47;98871.31;;;27.54;72.88
22743;BME280;11538;48.884;8.696;2023-08-12T09:05:15;98874.00;;;27.61;73.04
22743;BME280;11538;48.884;8.696;2023-08-12T09:07:44;98865.38;;;27.86;72.67
22743;BME280;11538;48.884;8.696;2023-08-12T09:10:12;98868.22;;;28.17;72.14
22743;BME280;11538;48.884;8.696;2023-08-12T09:12:42;98867.41;;;28.48;70.17
22743;BME280;11538;48.884;8.696;2023-08-12T09:15:10;98873.69;;;28.56;70.68
22743;BME280;11538;48.884;8.696;2023-08-12T09:17:38;98869.09;;;28.69;69.84
22743;BME280;11538;48.884;8.696;2023-08-12T09:20:06;98862.84;;;28.89;68.41
22743;BME280;11538;48.884;8.696;2023-08-12T09:22:43;98869.56;;;29.19;65.58
22743;BME280;11538;48.884;8.696;2023-08-12T09:25:10;98860.16;;;29.09;66.89
22743;BME280;11538;48.884;8.696;2023-08-12T09:27:37;98859.16;;;28.68;67.24
22743;BME280;11538;48.884;8.696;2023-08-12T09:30:08;98850.25;;;28.50;67.75
22743;BME280;11538;48.884;8.696;2023-08-12T09:32:38;98842.00;;;28.42;69.68
22743;BME280;11538;48.884;8.696;2023-08-12T09:35:10;98838.09;;;28.36;70.20
22743;BME280;11538;48.884;8.696;2023-08-12T09:37:43;98840.53;;;28.34;69.46
22743;BME280;11538;48.884;8.696;2023-08-12T09:40:11;98844.91;;;28.31;70.37
22743;BME280;11538;48.884;8.696;2023-08-12T09:42:45;98856.03;;;28.35;70.01
22743;BME280;11538;48.884;8.696;2023-08-12T09:45:14;98853.56;;;28.41;69.28
22743;BME280;11538;48.884;8.696;2023-08-12T09:47:43;98858.06;;;28.62;68.93
22743;BME280;11538;48.884;8.696;2023-08-12T09:50:12;98857.09;;;28.72;69.17
22743;BME280;11538;48.884;8.696;2023-08-12T09:52:40;98857.28;;;28.89;69.32
22743;BME280;11538;48.884;8.696;2023-08-12T09:55:10;98861.28;;;29.12;68.95
22743;BME280;11538;48.884;8.696;2023-08-12T09:57:42;98859.38;;;29.32;68.03
22743;BME280;11538;48.884;8.696;2023-08-12T10:00:12;98845.09;;;29.71;66.32
22743;BME280;11538;48.884;8.696;2023-08-12T10:02:45;98838.81;;;29.67;64.39
22743;BME280;11538;48.884;8.696;2023-08-12T10:05:28;98815.06;;;29.95;64.46
22743;BME280;11538;48.884;8.696;2023-08-12T10:07:58;98817.13;;;30.31;63.89
22743;BME280;11538;48.884;8.696;2023-08-12T10:10:26;98817.78;;;30.56;63.25
22743;BME280;11538;48.884;8.696;2023-08-12T10:12:54;98816.47;;;30.77;63.03
22743;BME280;11538;48.884;8.696;2023-08-12T10:15:22;98817.81;;;30.89;63.10
22743;BME280;11538;48.884;8.696;2023-08-12T10:17:51;98811.66;;;31.11;62.67
22743;BME280;11538;48.884;8.696;2023-08-12T10:20:24;98810.91;;;31.40;62.51
22743;BME280;11538;48.884;8.696;2023-08-12T10:22:53;98803.94;;;31.61;59.47
22743;BME280;11538;48.884;8.696;2023-08-12T10:25:21;98806.97;;;31.66;59.98
22743;BME280;11538;48.884;8.696;2023-08-12T10:27:51;98814.06;;;31.71;60.49
22743;BME280;11538;48.884;8.696;2023-08-12T10:30:20;98829.66;;;32.02;58.75
22743;BME280;11538;48.884;8.696;2023-08-12T10:32:47;98836.22;;;32.37;59.25
22743;BME280;11538;48.884;8.696;2023-08-12T10:35:15;98841.06;;;32.63;58.17
22743;BME280;11538;48.884;8.696;2023-08-12T10:37:42;98837.22;;;32.82;59.17
22743;BME280;11538;48.884;8.696;2023-08-12T10:40:22;98834.63;;;33.01;58.68
22743;BME280;11538;48.884;8.696;2023-08-12T10:42:50;98840.03;;;32.82;56.38
22743;BME280;11538;48.884;8.696;2023-08-12T10:45:18;98839.91;;;32.99;56.83
22743;BME280;11538;48.884;8.696;2023-08-12T10:50:36;98841.63;;;32.96;54.19
22743;BME280;11538;48.884;8.696;2023-08-12T10:53:32;98839.88;;;32.08;58.14
22743;BME280;11538;48.884;8.696;2023-08-12T10:56:04;98840.06;;;31.88;59.15
22743;BME280;11538;48.884;8.696;2023-08-12T10:58:44;98849.03;;;31.83;55.94
22743;BME280;11538;48.884;8.696;2023-08-12T11:01:18;98845.94;;;31.48;58.32
22743;BME280;11538;48.884;8.696;2023-08-12T11:03:48;98852.28;;;31.02;57.44
22743;BME280;11538;48.884;8.696;2023-08-12T11:06:16;98851.31;;;30.76;63.62
22743;BME280;11538;48.884;8.696;2023-08-12T11:09:06;98852.00;;;30.43;63.22
22743;BME280;11538;48.884;8.696;2023-08-12T11:11:34;98852.22;;;30.16;64.30
22743;BME280;11538;48.884;8.696;2023-08-12T11:14:14;98850.06;;;29.83;64.70
22743;BME280;11538;48.884;8.696;2023-08-12T11:16:43;98851.25;;;29.62;66.09
22743;BME280;11538;48.884;8.696;2023-08-12T11:19:10;98849.19;;;29.66;66.65
22743;BME280;11538;48.884;8.696;2023-08-12T11:21:38;98848.63;;;29.75;65.73
22743;BME280;11538;48.884;8.696;2023-08-12T11:24:05;98858.59;;;29.76;63.55
22743;BME280;11538;48.884;8.696;2023-08-12T11:26:32;98843.97;;;29.88;63.19
22743;BME280;11538;48.884;8.696;2023-08-12T11:28:59;98842.03;;;30.79;60.41
22743;BME280;11538;48.884;8.696;2023-08-12T11:31:26;98848.13;;;31.86;56.64
22743;BME280;11538;48.884;8.696;2023-08-12T11:33:54;98844.09;;;31.87;54.93
22743;BME280;11538;48.884;8.696;2023-08-12T11:36:21;98842.09;;;32.56;53.83
22743;BME280;11538;48.884;8.696;2023-08-12T11:38:48;98852.47;;;32.30;54.12
22743;BME280;11538;48.884;8.696;2023-08-12T11:41:18;98854.28;;;31.35;55.21
22743;BME280;11538;48.884;8.696;2023-08-12T11:43:45;98854.91;;;31.26;56.11
22743;BME280;11538;48.884;8.696;2023-08-12T11:46:15;98845.28;;;31.27;56.27
22743;BME280;11538;48.884;8.696;2023-08-12T11:48:43;98842.47;;;30.77;57.74
22743;BME280;11538;48.884;8.696;2023-08-12T11:51:10;98840.41;;;30.45;58.86
22743;BME280;11538;48.884;8.696;2023-08-12T11:53:37;98834.97;;;30.74;58.33
22743;BME280;11538;48.884;8.696;2023-08-12T11:56:05;98838.63;;;30.88;57.18
22743;BME280;11538;48.884;8.696;2023-08-12T11:58:36;98847.97;;;30.28;59.30
22743;BME280;11538;48.884;8.696;2023-08-12T12:01:17;98845.09;;;29.71;61.19
22743;BME280;11538;48.884;8.696;2023-08-12T12:03:44;98851.16;;;29.45;62.11
22743;BME280;11538;48.884;8.696;2023-08-12T12:06:12;98862.22;;;29.29;64.86
22743;BME280;11538;48.884;8.696;2023-08-12T12:08:39;98861.97;;;28.96;65.08
22743;BME280;11538;48.884;8.696;2023-08-12T12:11:06;98862.19;;;28.81;66.33
22743;BME280;11538;48.884;8.696;2023-08-12T12:13:34;98853.91;;;28.74;67.99
22743;BME280;11538;48.884;8.696;2023-08-12T12:16:01;98845.31;;;28.61;67.50
22743;BME280;11538;48.884;8.696;2023-08-12T12:18:28;98855.25;;;28.62;69.37
22743;BME280;11538;48.884;8.696;2023-08-12T12:21:00;98854.38;;;28.96;68.02
22743;BME280;11538;48.884;8.696;2023-08-12T12:23:31;98863.53;;;29.21;65.78
22743;BME280;11538;48.884;8.696;2023-08-12T12:26:03;98861.25;;;29.15;64.93
22743;BME280;11538;48.884;8.696;2023-08-12T12:28:31;98871.72;;;28.84;65.19
22743;BME280;11538;48.884;8.696;2023-08-12T12:30:58;98871.78;;;28.77;65.73
22743;BME280;11538;48.884;8.696;2023-08-12T12:33:25;98878.88;;;28.85;65.01
22743;BME280;11538;48.884;8.696;2023-08-12T12:35:52;98879.03;;;29.93;62.09
22743;BME280;11538;48.884;8.696;2023-08-12T12:38:26;98887.44;;;31.53;56.21
22743;BME280;11538;48.884;8.696;2023-08-12T12:40:54;98889.34;;;32.32;53.81
22743;BME280;11538;48.884;8.696;2023-08-12T12:43:20;98890.50;;;32.18;53.80
22743;BME280;11538;48.884;8.696;2023-08-12T12:45:48;98893.72;;;32.33;53.41
22743;BME280;11538;48.884;8.696;2023-08-12T12:48:15;98887.66;;;32.47;52.94
22743;BME280;11538;48.884;8.696;2023-08-12T12:50:42;98883.72;;;32.32;53.80
22743;BME280;11538;48.884;8.696;2023-08-12T12:53:09;98877.81;;;32.13;54.17
22743;BME280;11538;48.884;8.696;2023-08-12T12:55:36;98880.38;;;31.48;55.97
22743;BME280;11538;48.884;8.696;2023-08-12T12:58:03;98896.13;;;30.92;57.64
22743;BME280;11538;48.884;8.696;2023-08-12T13:00:30;98884.38;;;30.44;58.14
22743;BME280;11538;48.884;8.696;2023-08-12T13:02:58;98894.94;;;29.96;60.77
22743;BME280;11538;48.884;8.696;2023-08-12T13:05:25;98886.31;;;29.67;62.01